createdAt,value
2022-12-03T00:00:15.126Z,1.58
2022-12-03T00:03:03.298Z,1.56
2022-12-03T00:05:51.467Z,1.56
2022-12-03T00:08:39.528Z,1.57
2022-12-03T00:11:27.551Z,1.58
2022-12-03T00:14:15.516Z,1.58
2022-12-03T00:17:05.104Z,1.58
2022-12-03T00:19:52.919Z,1.58
2022-12-03T00:22:40.971Z,1.58
2022-12-03T00:25:29.094Z,1.57
2022-12-03T00:28:17.078Z,1.57
2022-12-03T00:31:05.542Z,1.57
2022-12-03T00:33:55.694Z,1.59
2022-12-03T00:36:43.781Z,1.59
2022-12-03T00:39:31.818Z,1.58
2022-12-03T00:42:19.848Z,1.58
2022-12-03T00:45:10.478Z,1.58
2022-12-03T00:47:58.356Z,1.57
2022-12-03T00:50:47.861Z,1.58
2022-12-03T00:53:36.055Z,1.59
2022-12-03T00:56:23.843Z,1.57
2022-12-03T00:59:12.003Z,1.58
2022-12-03T01:02:00.255Z,1.56
2022-12-03T01:04:48.114Z,1.56
2022-12-03T01:07:37.283Z,1.58
2022-12-03T01:10:25.532Z,1.59
2022-12-03T01:13:13.605Z,1.60
2022-12-03T01:16:01.673Z,1.60
2022-12-03T01:18:52.347Z,1.59
2022-12-03T01:21:40.142Z,1.57
2022-12-03T01:24:29.983Z,1.59
2022-12-03T01:27:17.905Z,1.58
2022-12-03T01:30:07.115Z,1.59
2022-12-03T01:32:53.981Z,1.57
2022-12-03T01:35:42.240Z,1.58
2022-12-03T01:38:30.369Z,1.58
2022-12-03T01:41:21.871Z,1.58
2022-12-03T01:44:17.426Z,1.59
2022-12-03T01:47:07.649Z,1.59
2022-12-03T01:50:00.891Z,1.60
2022-12-03T01:52:49.308Z,1.58
2022-12-03T01:55:37.980Z,1.60
2022-12-03T01:58:29.926Z,1.60
2022-12-03T02:01:19.785Z,1.62
2022-12-03T02:04:07.986Z,1.59
2022-12-03T02:06:55.803Z,1.60
2022-12-03T02:09:43.901Z,1.59
2022-12-03T02:12:35.731Z,1.60
2022-12-03T02:15:25.060Z,1.59
2022-12-03T02:18:13.324Z,1.57
2022-12-03T02:21:11.877Z,1.58
2022-12-03T02:24:08.409Z,1.59
2022-12-03T02:26:57.650Z,1.59
2022-12-03T02:29:48.050Z,1.61
2022-12-03T02:32:36.139Z,1.60
2022-12-03T02:35:26.012Z,1.62
2022-12-03T02:38:18.574Z,1.62
2022-12-03T02:41:09.570Z,1.62
2022-12-03T02:43:58.018Z,1.60
2022-12-03T02:46:45.979Z,1.60
2022-12-03T02:49:34.004Z,1.62
2022-12-03T02:52:22.224Z,1.62
2022-12-03T02:55:11.442Z,1.64
2022-12-03T02:57:59.628Z,1.63
2022-12-03T03:00:49.455Z,1.62
2022-12-03T03:03:38.944Z,1.65
2022-12-03T03:06:27.426Z,1.65
2022-12-03T03:09:15.222Z,1.63
2022-12-03T03:12:03.457Z,1.64
2022-12-03T03:14:51.711Z,1.64
2022-12-03T03:17:42.051Z,1.64
2022-12-03T03:20:30.313Z,1.65
2022-12-03T03:23:23.860Z,1.64
2022-12-03T03:26:13.728Z,1.66
2022-12-03T03:29:03.091Z,1.63
2022-12-03T03:31:51.445Z,1.63
2022-12-03T03:34:40.715Z,1.63
2022-12-03T03:37:32.070Z,1.64
2022-12-03T03:40:20.765Z,1.63
2022-12-03T03:43:10.896Z,1.62
2022-12-03T03:45:59.084Z,1.62
2022-12-03T03:48:48.510Z,1.64
2022-12-03T03:51:39.690Z,1.63
2022-12-03T03:54:28.233Z,1.64
2022-12-03T03:57:16.809Z,1.63
2022-12-03T04:00:05.851Z,1.64
2022-12-03T04:02:54.793Z,1.64
2022-12-03T04:05:42.822Z,1.66
2022-12-03T04:08:32.085Z,1.63
2022-12-03T04:11:37.260Z,1.63
2022-12-03T04:14:25.642Z,1.63
2022-12-03T04:17:13.587Z,1.63
2022-12-03T04:20:01.926Z,1.62
2022-12-03T04:22:48.666Z,1.63
2022-12-03T04:25:55.797Z,1.60
2022-12-03T04:28:52.344Z,1.62
2022-12-03T04:31:58.396Z,1.60
2022-12-03T04:35:03.910Z,1.60
2022-12-03T04:37:52.147Z,1.59
2022-12-03T04:40:59.490Z,1.59
2022-12-03T04:44:01.154Z,1.57
2022-12-03T04:46:48.977Z,1.58
2022-12-03T04:49:38.859Z,1.57
2022-12-03T04:52:26.732Z,1.59
2022-12-03T04:55:14.739Z,1.58
2022-12-03T04:58:04.255Z,1.59
2022-12-03T05:00:53.236Z,1.60
2022-12-03T05:03:41.156Z,1.59
2022-12-03T05:06:29.087Z,1.57
2022-12-03T05:09:16.858Z,1.57
2022-12-03T05:12:05.054Z,1.56
2022-12-03T05:14:54.563Z,1.56
2022-12-03T05:17:42.997Z,1.55
2022-12-03T05:20:46.937Z,1.56
2022-12-03T05:23:39.189Z,1.54
2022-12-03T05:26:27.459Z,1.53
2022-12-03T05:29:15.785Z,1.53
2022-12-03T05:32:05.657Z,1.52
2022-12-03T05:34:53.781Z,1.49
2022-12-03T05:37:45.101Z,1.52
2022-12-03T05:40:33.367Z,1.53
2022-12-03T05:43:20.174Z,1.50
2022-12-03T05:46:08.635Z,1.50
2022-12-03T05:48:58.024Z,1.44
2022-12-03T05:51:45.998Z,1.45
2022-12-03T05:54:34.341Z,1.44
2022-12-03T05:57:22.190Z,1.45
2022-12-03T06:00:14.576Z,1.45
2022-12-03T06:03:02.885Z,1.47
2022-12-03T06:05:52.313Z,1.44
2022-12-03T06:08:40.259Z,1.41
2022-12-03T06:11:29.858Z,1.44
2022-12-03T06:14:17.728Z,1.44
2022-12-03T06:17:05.941Z,1.44
2022-12-03T06:19:56.318Z,1.39
2022-12-03T06:22:45.617Z,1.45
2022-12-03T06:25:33.585Z,1.39
2022-12-03T06:28:21.695Z,1.44
2022-12-03T06:31:09.902Z,1.42
2022-12-03T06:33:57.709Z,1.41
2022-12-03T06:36:46.851Z,1.41
2022-12-03T06:39:36.399Z,1.37
2022-12-03T06:42:24.499Z,1.41
2022-12-03T06:45:13.198Z,1.43
2022-12-03T06:48:01.342Z,1.44
2022-12-03T06:50:49.024Z,1.46
2022-12-03T06:53:37.169Z,1.45
2022-12-03T06:56:32.835Z,1.46
2022-12-03T06:59:23.185Z,1.42
2022-12-03T07:02:12.477Z,1.38
2022-12-03T07:05:00.583Z,1.42
2022-12-03T07:07:52.008Z,1.43
2022-12-03T07:10:39.873Z,1.43
2022-12-03T07:13:29.321Z,1.45
2022-12-03T07:16:17.309Z,1.44
2022-12-03T07:19:06.721Z,1.49
2022-12-03T07:21:54.786Z,1.49
2022-12-03T07:24:42.810Z,1.51
2022-12-03T07:27:30.555Z,1.51
2022-12-03T07:30:20.577Z,1.51
2022-12-03T07:33:08.600Z,1.51
2022-12-03T07:35:56.532Z,1.51
2022-12-03T07:38:44.383Z,1.51
2022-12-03T07:41:32.473Z,1.52
2022-12-03T07:44:20.407Z,1.52
2022-12-03T07:47:09.884Z,1.53
2022-12-03T07:49:57.706Z,1.53
2022-12-03T07:52:45.918Z,1.56
2022-12-03T07:55:33.794Z,1.56
2022-12-03T07:58:24.154Z,1.54
2022-12-03T08:01:14.455Z,1.55
2022-12-03T08:04:03.859Z,1.57
2022-12-03T08:06:51.954Z,1.58
2022-12-03T08:09:41.322Z,1.60
2022-12-03T08:12:40.893Z,1.62
2022-12-03T08:15:35.404Z,1.62
2022-12-03T08:18:29.157Z,1.62
2022-12-03T08:21:21.274Z,1.64
2022-12-03T08:24:16.038Z,1.65
2022-12-03T08:27:06.584Z,1.65
2022-12-03T08:30:02.474Z,1.65
2022-12-03T08:32:51.779Z,1.65
2022-12-03T08:35:41.258Z,1.66
2022-12-03T08:38:31.671Z,1.67
2022-12-03T08:41:36.097Z,1.68
2022-12-03T08:44:29.023Z,1.70
2022-12-03T08:47:20.971Z,1.72
2022-12-03T08:50:30.568Z,1.73
2022-12-03T08:53:34.963Z,1.75
2022-12-03T08:56:25.049Z,1.76
2022-12-03T08:59:27.573Z,1.80
2022-12-03T09:02:26.392Z,1.81
2022-12-03T09:05:18.101Z,1.82
2022-12-03T09:08:06.054Z,1.85
2022-12-03T09:10:55.248Z,1.87
2022-12-03T09:13:43.138Z,1.88
2022-12-03T09:16:31.138Z,1.94
2022-12-03T09:19:19.036Z,1.94
2022-12-03T09:22:07.127Z,1.97
2022-12-03T09:24:55.088Z,1.98
2022-12-03T09:27:44.542Z,2.01
2022-12-03T09:30:32.485Z,2.01
2022-12-03T09:33:20.607Z,2.03
2022-12-03T09:36:08.923Z,2.06
2022-12-03T09:38:57.487Z,2.11
2022-12-03T09:41:45.705Z,2.11
2022-12-03T09:44:39.067Z,2.15
2022-12-03T09:47:28.522Z,2.17
2022-12-03T09:50:20.185Z,2.20
2022-12-03T09:53:08.365Z,2.24
2022-12-03T09:56:02.405Z,2.28
2022-12-03T09:58:50.848Z,2.27
2022-12-03T10:01:40.319Z,2.32
2022-12-03T10:04:29.269Z,2.34
2022-12-03T10:07:17.306Z,2.31
2022-12-03T10:10:08.371Z,2.34
2022-12-03T10:12:58.174Z,2.36
2022-12-03T10:15:48.733Z,2.38
2022-12-03T10:18:41.594Z,2.39
2022-12-03T10:21:32.225Z,2.44
2022-12-03T10:24:23.552Z,2.44
2022-12-03T10:27:26.765Z,2.43
2022-12-03T10:30:19.528Z,2.43
2022-12-03T10:33:18.903Z,2.47
2022-12-03T10:36:21.688Z,2.52
2022-12-03T10:39:15.567Z,2.55
2022-12-03T10:42:16.604Z,2.54
2022-12-03T10:45:16.573Z,2.59
2022-12-03T10:48:07.430Z,2.65
2022-12-03T10:50:56.661Z,2.67
2022-12-03T10:53:46.350Z,2.70
2022-12-03T10:56:34.210Z,2.70
2022-12-03T10:59:24.622Z,2.73
2022-12-03T11:02:19.649Z,2.71
2022-12-03T11:05:08.917Z,2.68
2022-12-03T11:07:57.612Z,2.65
2022-12-03T11:10:47.798Z,2.74
2022-12-03T11:13:51.205Z,2.72
2022-12-03T11:17:08.780Z,2.76
2022-12-03T11:19:56.870Z,2.75
2022-12-03T11:22:46.888Z,2.79
2022-12-03T11:25:51.485Z,2.80
2022-12-03T11:28:57.849Z,2.84
2022-12-03T11:31:47.756Z,2.68
2022-12-03T11:34:44.989Z,2.74
2022-12-03T11:37:32.772Z,2.74
2022-12-03T11:40:36.135Z,2.80
2022-12-03T11:44:03.193Z,2.91
2022-12-03T11:46:51.296Z,2.88
2022-12-03T11:49:49.055Z,2.90
2022-12-03T11:52:48.838Z,2.97
2022-12-03T11:55:39.461Z,2.92
2022-12-03T11:58:29.385Z,2.82
2022-12-03T12:01:38.255Z,2.89
2022-12-03T12:04:33.081Z,2.92
2022-12-03T12:07:35.464Z,2.92
2022-12-03T12:10:47.076Z,2.95
2022-12-03T12:13:54.507Z,2.96
2022-12-03T12:16:51.368Z,3.02
2022-12-03T12:19:43.221Z,2.91
2022-12-03T12:22:32.638Z,3.02
2022-12-03T12:25:38.445Z,3.03
2022-12-03T12:28:26.631Z,2.95
2022-12-03T12:31:14.339Z,3.00
2022-12-03T12:34:06.105Z,3.02
2022-12-03T12:36:56.219Z,2.93
2022-12-03T12:39:44.482Z,2.91
2022-12-03T12:42:35.190Z,2.96
2022-12-03T12:45:24.895Z,2.80
2022-12-03T12:48:22.951Z,2.86
2022-12-03T12:51:16.841Z,2.83
2022-12-03T12:54:07.520Z,2.81
2022-12-03T12:56:55.280Z,2.78
2022-12-03T12:59:43.334Z,2.74
2022-12-03T13:02:46.396Z,2.71
2022-12-03T13:05:38.881Z,2.82
2022-12-03T13:08:31.652Z,2.85
2022-12-03T13:11:31.219Z,2.79
2022-12-03T13:14:21.766Z,2.87
2022-12-03T13:17:16.423Z,2.92
2022-12-03T13:20:15.919Z,2.88
2022-12-03T13:23:04.486Z,2.84
2022-12-03T13:26:12.898Z,2.81
2022-12-03T13:29:10.309Z,2.87
2022-12-03T13:32:01.162Z,2.92
2022-12-03T13:34:50.618Z,2.92
2022-12-03T13:37:39.200Z,2.95
2022-12-03T13:40:30.582Z,2.96
2022-12-03T13:43:21.452Z,2.99
2022-12-03T13:46:11.414Z,2.99
2022-12-03T13:49:01.858Z,3.00
2022-12-03T13:51:51.155Z,2.93
2022-12-03T13:54:40.129Z,2.81
2022-12-03T13:57:27.956Z,2.76
2022-12-03T14:00:18.145Z,2.75
2022-12-03T14:03:06.558Z,2.71
2022-12-03T14:05:54.412Z,2.61
2022-12-03T14:08:42.520Z,2.75
2022-12-03T14:11:50.162Z,2.73
2022-12-03T14:14:37.921Z,2.69
2022-12-03T14:17:30.093Z,2.70
2022-12-03T14:20:20.015Z,2.69
2022-12-03T14:23:08.106Z,2.68
2022-12-03T14:25:56.346Z,2.75
2022-12-03T14:29:18.229Z,2.68
2022-12-03T14:32:06.629Z,2.69
2022-12-03T14:34:56.653Z,2.69
2022-12-03T14:37:44.337Z,2.69
2022-12-03T14:40:34.771Z,2.72
2022-12-03T14:43:24.813Z,2.46
2022-12-03T14:46:13.166Z,2.54
2022-12-03T14:49:01.256Z,2.51
2022-12-03T14:51:50.877Z,2.56
2022-12-03T14:54:40.582Z,2.46
2022-12-03T14:57:28.746Z,2.46
2022-12-03T15:00:17.616Z,2.47
2022-12-03T15:03:05.818Z,2.34
2022-12-03T15:05:53.923Z,2.22
2022-12-03T15:08:46.446Z,2.23
2022-12-03T15:11:34.452Z,2.24
2022-12-03T15:14:22.346Z,2.18
2022-12-03T15:17:10.601Z,2.18
2022-12-03T15:19:58.389Z,2.23
2022-12-03T15:22:46.141Z,2.11
2022-12-03T15:25:36.408Z,1.91
2022-12-03T15:28:24.497Z,1.99
2022-12-03T15:31:27.299Z,1.82
2022-12-03T15:34:21.843Z,1.95
2022-12-03T15:37:10.866Z,1.99
2022-12-03T15:39:59.267Z,2.11
2022-12-03T15:42:49.137Z,1.84
2022-12-03T15:45:37.903Z,1.88
2022-12-03T15:48:25.803Z,1.98
2022-12-03T15:51:13.751Z,1.81
2022-12-03T15:54:01.816Z,1.85
2022-12-03T15:56:55.526Z,1.84
2022-12-03T15:59:46.683Z,1.92
2022-12-03T16:02:34.859Z,1.99
2022-12-03T16:05:22.920Z,1.91
2022-12-03T16:08:10.822Z,1.91
2022-12-03T16:10:58.592Z,1.90
2022-12-03T16:13:46.979Z,1.86
2022-12-03T16:16:36.485Z,1.92
2022-12-03T16:19:24.394Z,1.81
2022-12-03T16:22:12.720Z,1.87
2022-12-03T16:25:00.590Z,1.78
2022-12-03T16:27:48.661Z,1.74
2022-12-03T16:30:37.991Z,1.79
2022-12-03T16:33:29.715Z,1.85
2022-12-03T16:36:18.097Z,1.94
2022-12-03T16:39:06.595Z,1.98
2022-12-03T16:41:54.382Z,1.98
2022-12-03T16:45:11.911Z,1.94
2022-12-03T16:47:59.842Z,1.95
2022-12-03T16:50:49.373Z,1.92
2022-12-03T16:53:37.564Z,1.91
2022-12-03T16:56:25.769Z,1.83
2022-12-03T16:59:13.942Z,1.74
2022-12-03T17:02:02.167Z,1.83
2022-12-03T17:04:52.187Z,1.71
2022-12-03T17:07:41.410Z,1.73
2022-12-03T17:10:29.817Z,1.82
2022-12-03T17:13:18.113Z,1.83
2022-12-03T17:16:06.879Z,1.83
2022-12-03T17:18:54.529Z,1.82
2022-12-03T17:21:42.767Z,1.76
2022-12-03T17:25:25.804Z,1.82
2022-12-03T17:28:15.286Z,1.70
2022-12-03T17:31:03.179Z,1.75
2022-12-03T17:33:52.604Z,1.78
2022-12-03T17:36:40.315Z,1.74
2022-12-03T17:39:28.290Z,1.78
2022-12-03T17:42:16.555Z,1.82
2022-12-03T17:45:07.595Z,1.86
2022-12-03T17:47:55.428Z,1.85
2022-12-03T17:50:43.499Z,1.78
2022-12-03T17:53:31.608Z,1.81
2022-12-03T17:56:22.522Z,1.84
2022-12-03T17:59:11.126Z,1.80
2022-12-03T18:02:00.310Z,1.77
2022-12-03T18:04:48.343Z,1.78
2022-12-03T18:07:36.439Z,1.66
2022-12-03T18:10:24.326Z,1.74
2022-12-03T18:13:12.373Z,1.67
2022-12-03T18:16:00.410Z,1.76
2022-12-03T18:18:55.044Z,1.79
2022-12-03T18:21:44.621Z,1.80
2022-12-03T18:24:32.670Z,1.82
2022-12-03T18:27:20.986Z,1.73
2022-12-03T18:30:09.939Z,1.72
2022-12-03T18:32:58.058Z,1.70
2022-12-03T18:35:47.472Z,1.71
2022-12-03T18:38:35.884Z,1.67
2022-12-03T18:41:25.309Z,1.66
2022-12-03T18:44:13.568Z,1.70
2022-12-03T18:47:02.610Z,1.67
2022-12-03T18:49:50.641Z,1.70
2022-12-03T18:52:39.969Z,1.70
2022-12-03T18:55:32.061Z,1.75
2022-12-03T18:58:22.970Z,1.75
2022-12-03T19:01:17.739Z,1.73
2022-12-03T19:04:06.097Z,1.74
2022-12-03T19:06:54.607Z,1.75
2022-12-03T19:09:44.239Z,1.73
2022-12-03T19:12:32.235Z,1.75
2022-12-03T19:15:20.612Z,1.70
2022-12-03T19:18:11.734Z,1.66
2022-12-03T19:21:02.127Z,1.68
2022-12-03T19:24:22.169Z,1.65
2022-12-03T19:27:02.094Z,1.64
2022-12-03T19:29:53.512Z,1.66
2022-12-03T19:32:41.663Z,1.67
2022-12-03T19:35:30.761Z,1.68
2022-12-03T19:38:18.935Z,1.69
2022-12-03T19:41:08.458Z,1.72
2022-12-03T19:43:58.936Z,1.78
2022-12-03T19:46:47.009Z,1.76
2022-12-03T19:49:35.044Z,1.72
2022-12-03T19:52:23.047Z,1.68
2022-12-03T19:55:11.138Z,1.72
2022-12-03T19:57:59.158Z,1.75
2022-12-03T20:00:48.634Z,1.76
2022-12-03T20:03:39.312Z,1.79
2022-12-03T20:06:29.581Z,1.81
2022-12-03T20:09:20.817Z,1.81
2022-12-03T20:12:09.188Z,1.82
2022-12-03T20:14:57.270Z,1.85
2022-12-03T20:17:46.530Z,1.85
2022-12-03T20:20:34.233Z,1.86
2022-12-03T20:23:22.203Z,1.77
2022-12-03T20:26:11.303Z,1.79
2022-12-03T20:29:00.568Z,1.80
2022-12-03T20:31:48.844Z,1.80
2022-12-03T20:34:38.390Z,1.78
2022-12-03T20:37:26.589Z,1.79
2022-12-03T20:40:15.115Z,1.77
2022-12-03T20:43:03.020Z,1.78
2022-12-03T20:45:51.433Z,1.82
2022-12-03T20:48:40.226Z,1.84
2022-12-03T20:51:32.187Z,1.85
2022-12-03T20:54:20.344Z,1.84
2022-12-03T20:57:08.502Z,1.87
2022-12-03T20:59:58.770Z,1.90
2022-12-03T21:02:46.824Z,1.90
2022-12-03T21:05:34.734Z,1.88
2022-12-03T21:08:40.101Z,1.91
2022-12-03T21:11:31.654Z,1.88
2022-12-03T21:14:19.565Z,1.88
2022-12-03T21:17:09.394Z,1.88
2022-12-03T21:19:57.894Z,1.88
2022-12-03T21:22:50.237Z,1.86
2022-12-03T21:25:42.816Z,1.88
2022-12-03T21:28:30.965Z,1.89
2022-12-03T21:31:20.610Z,1.90
2022-12-03T21:34:08.889Z,1.90
2022-12-03T21:36:56.834Z,1.92
2022-12-03T21:39:44.939Z,1.90
2022-12-03T21:42:37.240Z,1.92
2022-12-03T21:45:26.368Z,1.93
2022-12-03T21:48:14.586Z,1.93
2022-12-03T21:51:04.056Z,1.92
2022-12-03T21:53:53.182Z,1.93
2022-12-03T21:56:41.374Z,1.95
2022-12-03T21:59:30.848Z,1.97
2022-12-03T22:02:19.093Z,1.97
2022-12-03T22:05:09.331Z,1.98
2022-12-03T22:07:57.459Z,1.97
2022-12-03T22:10:45.439Z,1.98
2022-12-03T22:13:33.368Z,1.99
2022-12-03T22:16:23.136Z,1.99
2022-12-03T22:19:11.270Z,1.98
2022-12-03T22:21:58.997Z,2.00
2022-12-03T22:24:47.582Z,1.98
2022-12-03T22:27:35.574Z,2.02
2022-12-03T22:30:23.775Z,2.01
2022-12-03T22:33:13.219Z,2.01
2022-12-03T22:36:02.763Z,2.01
2022-12-03T22:38:51.188Z,2.02
2022-12-03T22:41:39.102Z,2.02
2022-12-03T22:44:27.254Z,2.05
2022-12-03T22:47:15.224Z,2.05
2022-12-03T22:50:04.749Z,2.06
2022-12-03T22:52:52.440Z,2.06
2022-12-03T22:55:40.751Z,2.06
2022-12-03T22:58:31.267Z,2.06
2022-12-03T23:01:24.183Z,2.07
2022-12-03T23:04:13.093Z,2.06
2022-12-03T23:07:02.724Z,2.06
2022-12-03T23:09:50.912Z,2.07
2022-12-03T23:12:38.755Z,2.08
2022-12-03T23:15:26.781Z,2.08
2022-12-03T23:18:16.517Z,2.08
2022-12-03T23:21:04.334Z,2.09
2022-12-03T23:23:53.690Z,2.10
2022-12-03T23:26:41.681Z,2.11
2022-12-03T23:29:29.966Z,2.12
2022-12-03T23:32:18.033Z,2.11
2022-12-03T23:35:07.698Z,2.10
2022-12-03T23:37:55.560Z,2.12
2022-12-03T23:40:48.281Z,2.12
2022-12-03T23:43:36.428Z,2.11
2022-12-03T23:46:26.508Z,2.09
2022-12-03T23:49:14.639Z,2.12
2022-12-03T23:52:02.898Z,2.13
2022-12-03T23:54:51.189Z,2.13
2022-12-03T23:57:40.398Z,2.14
